Flight Track Log - Related Links

Times and Time Zones

All times are in EDT time to prevent confusion due to time zone crossing. See the GLA10 flight status page for this flight to view local times or setup timezone preferences in your user account.

Time Position Orientation Groundspeed Altitude Reporting Facility
EDT Latitude Longitude Course Direction KTS MPH feet Rate Location/Type
Fri 09:09:14 AM 39.8500 -104.7833 288° West 187 215 8,300  Level Denver TRACON
Fri 09:10:08 AM 39.8667 -104.8500 303° West 184 212 10,000 1,632 Climbing Denver TRACON
Fri 09:11:08 AM 39.9000 -104.9167 349° North 228 262 11,400 1,000 Climbing Denver TRACON
Fri 09:12:14 AM 39.9667 -104.9333 360° North 241 277 12,100 300 Climbing Denver TRACON
Fri 09:13:08 AM 40.0333 -104.9333 360° North 269 310 12,000 -56 Descending Denver TRACON
Fri 09:14:02 AM 40.1000 -104.9333 11° North 277 319 12,000  Level Denver TRACON
Fri 09:15:02 AM 40.1667 -104.9167 360° North 274 315 12,000  Level Denver TRACON
Fri 09:15:56 AM 40.2500 -104.9167 11° North 280 322 12,000 53 Level Denver TRACON
Fri 09:16:56 AM 40.3167 -104.9000 360° North 281 323 12,100  Climbing Denver TRACON
Fri 09:17:56 AM 40.4000 -104.9000 360° North 275 316 12,000 -56 Descending Denver TRACON
Fri 09:18:44 AM 40.4500 -104.9000 North 274 315 12,000  Level Denver TRACON
Fri 09:19:44 AM 40.5333 -104.8833 14° North 275 316 12,000  Level Denver TRACON
Fri 09:20:33 AM 40.5833 -104.8667 North 275 316 12,000  Level Denver TRACON
Fri 09:21:32 AM 40.6667 -104.8500 11° North 267 307 12,000 -53 Level Denver TRACON
Fri 09:22:27 AM 40.7333 -104.8333 11° North 244 281 11,900 -417 Descending Denver TRACON
Fri 09:23:27 AM 40.8000 -104.8167 360° North 242 278 11,200 -750 Descending Denver TRACON
Fri 09:24:27 AM 40.8500 -104.8167 360° North 232 267 10,400 -655 Descending Denver TRACON
Fri 09:25:26 AM 40.9167 -104.8167 21° North 242 278 9,900 -655 Descending Denver TRACON
Fri 09:26:26 AM 40.9833 -104.7833 11° North 257 296 9,100 -800 Descending Denver TRACON
Fri 09:27:26 AM 41.0500 -104.7667 11° North 242 278 8,300 -850 Descending Denver TRACON
Fri 09:28:26 AM 41.1167 -104.7500 11° North 209 241 7,400 -900 Descending Denver TRACON

Login

Don't have an account? Register now (free) for customized features, flight alerts, and more!